createdAt,value
2018-10-09T00:03:25.239Z,5.13
2018-10-09T00:08:29.031Z,3.77
2018-10-09T00:13:32.811Z,6.23
2018-10-09T00:18:36.604Z,6.43
2018-10-09T00:23:40.361Z,5.50
2018-10-09T00:28:44.158Z,6.73
2018-10-09T00:33:47.939Z,12.00
2018-10-09T00:38:51.732Z,5.53
2018-10-09T00:43:55.494Z,6.67
2018-10-09T00:48:59.275Z,5.37
2018-10-09T00:54:03.043Z,6.10
2018-10-09T00:59:06.828Z,8.20
2018-10-09T01:04:10.634Z,6.53
2018-10-09T01:09:14.561Z,7.03
2018-10-09T01:14:18.321Z,5.73
2018-10-09T01:19:22.180Z,6.23
2018-10-09T01:24:26.005Z,14.90
2018-10-09T01:29:29.759Z,9.37
2018-10-09T01:34:33.548Z,5.73
2018-10-09T01:39:37.309Z,4.93
2018-10-09T01:44:41.111Z,5.00
2018-10-09T01:49:44.827Z,6.50
2018-10-09T01:54:48.995Z,5.50
2018-10-09T01:59:52.799Z,5.43
2018-10-09T02:04:56.507Z,9.20
2018-10-09T02:10:00.337Z,6.67
2018-10-09T02:15:04.543Z,5.93
2018-10-09T02:20:08.255Z,8.33
2018-10-09T02:25:11.978Z,5.77
2018-10-09T02:30:15.684Z,7.83
2018-10-09T02:35:19.432Z,13.53
2018-10-09T02:40:23.127Z,7.23
2018-10-09T02:45:26.935Z,5.17
2018-10-09T02:50:30.688Z,5.00
2018-10-09T02:55:34.440Z,4.90
2018-10-09T03:00:38.155Z,6.00
2018-10-09T03:05:41.958Z,3.97
2018-10-09T03:10:45.676Z,8.63
2018-10-09T03:15:49.379Z,14.33
2018-10-09T03:20:53.099Z,9.87
2018-10-09T03:25:56.799Z,9.20
2018-10-09T03:31:00.503Z,9.20
2018-10-09T03:36:04.255Z,10.27
2018-10-09T03:41:08.167Z,8.00
2018-10-09T03:46:11.891Z,4.50
2018-10-09T03:51:15.639Z,8.10
2018-10-09T03:56:19.543Z,9.57
2018-10-09T04:01:23.271Z,12.83
2018-10-09T04:06:27.286Z,8.87
2018-10-09T04:11:31.036Z,11.97
2018-10-09T04:16:34.764Z,5.60
2018-10-09T04:21:38.480Z,9.40
2018-10-09T04:26:42.182Z,6.93
2018-10-09T04:31:45.915Z,7.93
2018-10-09T04:36:49.653Z,9.50
2018-10-09T04:41:53.387Z,14.63
2018-10-09T04:46:57.104Z,10.90
2018-10-09T04:52:00.827Z,9.27
2018-10-09T04:57:04.555Z,11.13
2018-10-09T05:02:08.255Z,9.80
2018-10-09T05:07:12.007Z,9.20
2018-10-09T05:12:15.766Z,9.10
2018-10-09T05:17:19.495Z,12.80
2018-10-09T05:22:23.228Z,11.73
2018-10-09T05:27:26.991Z,10.97
2018-10-09T05:32:32.403Z,10.03
2018-10-09T05:37:36.193Z,13.17
2018-10-09T05:42:39.899Z,10.10
2018-10-09T05:47:43.653Z,9.57
2018-10-09T05:52:47.382Z,9.50
2018-10-09T05:57:51.145Z,11.30
2018-10-09T06:02:54.823Z,10.47
2018-10-09T06:07:58.572Z,13.30
2018-10-09T06:13:02.351Z,13.13
2018-10-09T06:18:06.088Z,12.20
2018-10-09T06:23:09.811Z,16.67
2018-10-09T06:28:13.595Z,12.10
2018-10-09T06:33:17.315Z,19.33
2018-10-09T06:38:21.055Z,9.90
2018-10-09T06:43:24.787Z,12.87
2018-10-09T06:48:28.603Z,15.07
2018-10-09T06:53:32.379Z,16.73
2018-10-09T06:58:36.059Z,16.00
2018-10-09T07:03:39.795Z,16.00
2018-10-09T07:08:43.560Z,18.87
2018-10-09T07:13:47.295Z,14.43
2018-10-09T07:18:51.007Z,12.60
2018-10-09T07:23:54.732Z,17.40
2018-10-09T07:28:58.599Z,14.80
2018-10-09T07:34:02.323Z,18.97
2018-10-09T07:39:08.169Z,17.13
2018-10-09T07:44:12.163Z,14.97
2018-10-09T07:49:15.834Z,22.97
2018-10-09T07:54:19.568Z,18.77
2018-10-09T07:59:23.278Z,15.47
2018-10-09T08:04:27.005Z,12.57
2018-10-09T08:09:30.746Z,16.47
2018-10-09T08:14:34.463Z,11.63
2018-10-09T08:19:38.199Z,17.07
2018-10-09T08:24:41.915Z,14.77
2018-10-09T08:29:45.665Z,24.50
2018-10-09T08:34:49.383Z,12.80
2018-10-09T08:39:53.083Z,17.00
2018-10-09T08:44:56.792Z,25.53
2018-10-09T08:50:00.527Z,18.60
2018-10-09T08:55:04.491Z,20.50
2018-10-09T09:00:09.164Z,20.97
2018-10-09T09:05:12.891Z,23.73
2018-10-09T09:10:16.624Z,25.63
2018-10-09T09:15:20.445Z,17.00
2018-10-09T09:20:24.298Z,14.67
2018-10-09T09:25:28.000Z,14.63
2018-10-09T09:30:31.740Z,34.80
2018-10-09T09:35:35.516Z,23.83
2018-10-09T09:40:39.452Z,20.17
2018-10-09T09:45:43.204Z,22.33
2018-10-09T09:50:46.904Z,22.70
2018-10-09T09:55:50.668Z,26.83
2018-10-09T10:00:58.311Z,25.00
2018-10-09T10:06:02.032Z,24.90
2018-10-09T10:11:05.751Z,19.20
2018-10-09T10:16:09.467Z,22.23
2018-10-09T10:21:13.184Z,19.53
2018-10-09T10:26:17.000Z,19.50
2018-10-09T10:31:20.736Z,24.00
2018-10-09T10:36:24.549Z,28.50
2018-10-09T10:41:28.274Z,20.97
2018-10-09T10:46:37.123Z,17.10
2018-10-09T10:51:40.869Z,13.73
2018-10-09T10:56:44.611Z,23.20
2018-10-09T11:01:48.524Z,26.03
2018-10-09T11:06:52.111Z,18.43
2018-10-09T11:11:55.880Z,15.87
2018-10-09T11:16:59.598Z,14.90
2018-10-09T11:22:03.308Z,21.93
2018-10-09T11:27:07.319Z,17.90
2018-10-09T11:32:11.074Z,20.13
2018-10-09T11:37:14.813Z,18.07
2018-10-09T11:42:18.531Z,16.73
2018-10-09T11:47:22.247Z,22.10
2018-10-09T11:52:26.015Z,27.20
2018-10-09T11:57:29.835Z,19.67
2018-10-09T12:02:33.567Z,21.10
2018-10-09T12:07:37.348Z,15.70
2018-10-09T12:12:41.103Z,16.70
2018-10-09T12:17:44.894Z,15.47
2018-10-09T12:22:48.691Z,24.63
2018-10-09T12:27:52.424Z,15.97
2018-10-09T12:32:56.222Z,15.37
2018-10-09T12:37:59.921Z,20.30
2018-10-09T12:43:03.660Z,16.50
2018-10-09T12:48:07.441Z,11.50
2018-10-09T12:53:11.187Z,13.60
2018-10-09T12:58:14.935Z,14.20
2018-10-09T13:03:18.679Z,15.37
2018-10-09T13:08:22.411Z,15.23
2018-10-09T13:13:26.227Z,13.20
2018-10-09T13:18:31.324Z,12.63
2018-10-09T13:23:35.202Z,9.23
2018-10-09T13:28:38.919Z,16.00
2018-10-09T13:33:42.650Z,21.00
2018-10-09T13:38:46.674Z,16.20
2018-10-09T13:43:50.444Z,14.90
2018-10-09T13:48:54.097Z,14.47
2018-10-09T13:53:57.818Z,11.73
2018-10-09T13:59:01.552Z,13.13
2018-10-09T14:04:05.267Z,14.00
2018-10-09T14:09:10.218Z,11.07
2018-10-09T14:14:13.939Z,11.50
2018-10-09T14:19:17.659Z,16.20
2018-10-09T14:24:21.362Z,13.00
2018-10-09T14:29:25.143Z,17.27
2018-10-09T14:34:28.851Z,11.03
2018-10-09T14:39:32.582Z,19.83
2018-10-09T14:44:36.314Z,15.30
2018-10-09T14:49:40.051Z,18.30
2018-10-09T14:54:43.757Z,8.50
2018-10-09T14:59:47.497Z,12.83
2018-10-09T15:04:51.178Z,9.67
2018-10-09T15:09:54.887Z,12.80
2018-10-09T15:14:58.615Z,13.70
2018-10-09T15:20:02.339Z,16.00
2018-10-09T15:25:06.070Z,11.30
2018-10-09T15:30:09.790Z,9.93
2018-10-09T15:35:13.576Z,12.77
2018-10-09T15:40:17.352Z,11.80
2018-10-09T15:45:21.147Z,8.43
2018-10-09T15:50:24.890Z,5.37
2018-10-09T15:55:28.609Z,9.47
2018-10-09T16:00:37.843Z,11.47
2018-10-09T16:05:41.605Z,7.90
2018-10-09T16:10:45.388Z,6.93
2018-10-09T16:15:49.282Z,9.20
2018-10-09T16:20:53.154Z,6.13
2018-10-09T16:25:56.888Z,9.93
2018-10-09T16:31:04.826Z,6.03
2018-10-09T16:36:09.030Z,6.70
2018-10-09T16:41:12.751Z,10.93
2018-10-09T16:46:16.439Z,9.90
2018-10-09T16:51:20.211Z,39.80
2018-10-09T16:56:23.904Z,13.50
2018-10-09T17:01:27.634Z,9.57
2018-10-09T17:06:32.293Z,10.90
2018-10-09T17:11:36.738Z,7.07
2018-10-09T17:16:40.787Z,6.00
2018-10-09T17:21:44.494Z,11.87
2018-10-09T17:26:48.350Z,11.13
2018-10-09T17:31:51.999Z,5.23
2018-10-09T17:36:55.877Z,5.87
2018-10-09T17:41:59.621Z,7.40
2018-10-09T17:47:06.924Z,10.63
2018-10-09T17:52:11.245Z,7.60
2018-10-09T17:57:14.926Z,7.80
2018-10-09T18:02:18.764Z,7.67
2018-10-09T18:07:22.479Z,10.70
2018-10-09T18:12:26.171Z,7.37
2018-10-09T18:17:29.858Z,6.00
2018-10-09T18:22:33.774Z,6.33
2018-10-09T18:27:37.573Z,4.37
2018-10-09T18:32:41.421Z,4.53
2018-10-09T18:37:45.087Z,4.83
2018-10-09T18:42:48.779Z,8.20
2018-10-09T18:47:52.519Z,7.07
2018-10-09T18:52:56.233Z,8.70
2018-10-09T18:57:59.947Z,6.37
2018-10-09T19:03:03.670Z,7.87
2018-10-09T19:08:07.374Z,9.90
2018-10-09T19:13:11.064Z,7.23
2018-10-09T19:18:14.791Z,4.77
2018-10-09T19:23:18.543Z,7.20
2018-10-09T19:28:22.294Z,5.37
2018-10-09T19:33:26.026Z,8.43
2018-10-09T19:38:29.735Z,4.90
2018-10-09T19:43:33.448Z,13.10
2018-10-09T19:48:37.203Z,5.97
2018-10-09T19:53:40.912Z,11.87
2018-10-09T19:58:44.624Z,5.77
2018-10-09T20:03:48.810Z,7.27
2018-10-09T20:08:52.524Z,5.40
2018-10-09T20:13:56.322Z,7.03
2018-10-09T20:19:00.079Z,10.90
2018-10-09T20:24:03.907Z,9.10
2018-10-09T20:29:08.591Z,6.40
2018-10-09T20:34:13.364Z,6.20
2018-10-09T20:39:17.187Z,6.10
2018-10-09T20:44:20.878Z,5.77
2018-10-09T20:49:25.880Z,5.87
2018-10-09T20:54:29.826Z,9.73
2018-10-09T20:59:33.620Z,9.63
2018-10-09T21:04:37.462Z,13.40
2018-10-09T21:09:41.239Z,11.30
2018-10-09T21:14:45.082Z,9.93
2018-10-09T21:19:48.906Z,9.73
2018-10-09T21:24:52.618Z,8.60
2018-10-09T21:29:56.367Z,11.33
2018-10-09T21:35:00.035Z,6.77
2018-10-09T21:40:03.738Z,12.33
2018-10-09T21:45:07.474Z,10.33
2018-10-09T21:50:11.230Z,10.77
2018-10-09T21:55:14.946Z,11.80
2018-10-09T22:00:18.651Z,9.10
2018-10-09T22:05:22.334Z,6.20
2018-10-09T22:10:26.050Z,9.70
2018-10-09T22:15:29.753Z,10.30
2018-10-09T22:20:33.475Z,6.53
2018-10-09T22:25:37.290Z,7.93
2018-10-09T22:30:41.807Z,11.83
2018-10-09T22:35:45.507Z,11.23
2018-10-09T22:40:49.242Z,11.10
2018-10-09T22:45:52.935Z,10.10
2018-10-09T22:50:56.638Z,11.10
2018-10-09T22:56:00.354Z,12.40
2018-10-09T23:01:04.079Z,11.27
2018-10-09T23:06:07.867Z,11.30
2018-10-09T23:11:11.563Z,11.57
2018-10-09T23:16:15.271Z,11.40
2018-10-09T23:21:18.975Z,15.30
2018-10-09T23:26:22.774Z,10.57
2018-10-09T23:31:26.487Z,15.10
2018-10-09T23:36:30.186Z,14.33
2018-10-09T23:41:34.453Z,14.07
2018-10-09T23:46:38.150Z,11.40
2018-10-09T23:51:41.858Z,13.20
2018-10-09T23:56:45.536Z,11.10
